createdAt,value
2023-05-25T00:00:16.476Z,81.45
2023-05-25T00:02:44.585Z,81.80
2023-05-25T00:05:11.495Z,81.07
2023-05-25T00:07:38.803Z,81.42
2023-05-25T00:10:07.087Z,81.38
2023-05-25T00:12:34.625Z,81.47
2023-05-25T00:15:01.310Z,81.00
2023-05-25T00:17:30.274Z,81.29
2023-05-25T00:19:58.472Z,81.33
2023-05-25T00:22:29.159Z,81.63
2023-05-25T00:24:56.006Z,81.46
2023-05-25T00:27:23.051Z,81.39
2023-05-25T00:29:49.646Z,81.58
2023-05-25T00:32:16.117Z,81.32
2023-05-25T00:34:42.685Z,81.72
2023-05-25T00:37:09.268Z,82.48
2023-05-25T00:39:35.805Z,82.32
2023-05-25T00:42:03.553Z,82.79
2023-05-25T00:44:32.179Z,82.80
2023-05-25T00:46:59.958Z,83.43
2023-05-25T00:49:28.355Z,82.90
2023-05-25T00:51:54.942Z,82.68
2023-05-25T00:54:21.990Z,83.45
2023-05-25T00:56:56.010Z,82.96
2023-05-25T00:59:41.375Z,83.07
2023-05-25T01:02:10.459Z,83.70
2023-05-25T01:04:45.273Z,83.56
2023-05-25T01:07:18.307Z,83.79
2023-05-25T01:09:50.661Z,83.84
2023-05-25T01:12:18.405Z,84.27
2023-05-25T01:14:48.274Z,83.93
2023-05-25T01:17:16.027Z,84.47
2023-05-25T01:19:51.896Z,84.39
2023-05-25T01:22:38.485Z,84.54
2023-05-25T01:25:31.649Z,84.42
2023-05-25T01:28:06.397Z,84.62
2023-05-25T01:30:34.668Z,84.43
2023-05-25T01:33:01.770Z,84.45
2023-05-25T01:35:28.499Z,84.24
2023-05-25T01:37:55.764Z,84.62
2023-05-25T01:40:22.375Z,84.64
2023-05-25T01:42:51.930Z,84.31
2023-05-25T01:45:18.585Z,84.40
2023-05-25T01:47:49.044Z,84.32
2023-05-25T01:50:24.328Z,84.28
2023-05-25T01:53:19.457Z,84.46
2023-05-25T01:55:52.919Z,84.34
2023-05-25T01:58:20.782Z,84.59
2023-05-25T02:00:51.011Z,84.23
2023-05-25T02:03:18.142Z,83.83
2023-05-25T02:05:46.459Z,84.46
2023-05-25T02:08:13.110Z,83.75
2023-05-25T02:10:39.914Z,84.62
2023-05-25T02:13:06.465Z,84.08
2023-05-25T02:15:34.011Z,84.87
2023-05-25T02:18:01.010Z,85.02
2023-05-25T02:20:28.555Z,85.04
2023-05-25T02:22:55.159Z,85.39
2023-05-25T02:25:21.777Z,85.70
2023-05-25T02:27:48.422Z,85.37
2023-05-25T02:30:15.075Z,85.84
2023-05-25T02:32:41.693Z,85.83
2023-05-25T02:35:08.655Z,85.97
2023-05-25T02:37:35.233Z,85.80
2023-05-25T02:40:01.761Z,86.01
2023-05-25T02:42:28.338Z,86.40
2023-05-25T02:44:54.865Z,86.52
2023-05-25T02:47:22.097Z,86.51
2023-05-25T02:49:48.689Z,86.18
2023-05-25T02:52:15.165Z,85.72
2023-05-25T02:54:42.015Z,85.54
2023-05-25T02:57:08.729Z,85.90
2023-05-25T02:59:35.470Z,85.42
2023-05-25T03:02:02.268Z,85.38
2023-05-25T03:04:31.141Z,85.96
2023-05-25T03:06:57.784Z,85.79
2023-05-25T03:09:24.941Z,85.68
2023-05-25T03:11:51.687Z,85.84
2023-05-25T03:14:18.295Z,85.72
2023-05-25T03:16:44.882Z,86.09
2023-05-25T03:19:12.425Z,86.42
2023-05-25T03:21:39.464Z,86.82
2023-05-25T03:24:06.417Z,87.01
2023-05-25T03:26:33.334Z,87.16
2023-05-25T03:28:59.853Z,87.10
2023-05-25T03:31:26.810Z,87.35
2023-05-25T03:33:53.538Z,87.21
2023-05-25T03:36:20.095Z,87.66
2023-05-25T03:38:47.087Z,87.53
2023-05-25T03:41:14.621Z,87.06
2023-05-25T03:43:41.221Z,86.50
2023-05-25T03:46:07.940Z,86.45
2023-05-25T03:48:34.880Z,86.15
2023-05-25T03:51:01.358Z,86.49
2023-05-25T03:53:27.817Z,86.21
2023-05-25T03:55:54.682Z,86.10
2023-05-25T03:58:21.326Z,85.98
2023-05-25T04:00:50.554Z,85.54
2023-05-25T04:03:17.363Z,85.44
2023-05-25T04:05:46.078Z,85.62
2023-05-25T04:08:18.067Z,85.90
2023-05-25T04:10:47.586Z,85.63
2023-05-25T04:13:14.572Z,85.62
2023-05-25T04:15:41.151Z,85.59
2023-05-25T04:18:07.739Z,85.22
2023-05-25T04:20:34.552Z,84.88
2023-05-25T04:23:01.361Z,84.73
2023-05-25T04:25:29.519Z,84.68
2023-05-25T04:27:59.349Z,84.45
2023-05-25T04:30:26.078Z,84.16
2023-05-25T04:32:52.626Z,84.07
2023-05-25T04:35:20.988Z,84.02
2023-05-25T04:37:48.397Z,83.72
2023-05-25T04:40:15.089Z,83.95
2023-05-25T04:42:42.026Z,82.99
2023-05-25T04:45:10.536Z,83.59
2023-05-25T04:47:37.795Z,83.12
2023-05-25T04:50:04.631Z,82.65
2023-05-25T04:52:31.228Z,82.33
2023-05-25T04:54:57.840Z,82.32
2023-05-25T04:57:24.413Z,82.51
2023-05-25T04:59:51.214Z,82.21
2023-05-25T05:02:17.739Z,81.58
2023-05-25T05:04:44.421Z,81.98
2023-05-25T05:07:11.081Z,82.27
2023-05-25T05:09:37.986Z,82.46
2023-05-25T05:12:04.799Z,81.86
2023-05-25T05:14:31.294Z,82.07
2023-05-25T05:16:57.987Z,82.13
2023-05-25T05:19:24.662Z,80.69
2023-05-25T05:21:51.465Z,77.42
2023-05-25T05:24:18.009Z,75.21
2023-05-25T05:26:57.433Z,73.87
2023-05-25T05:29:27.132Z,71.92
2023-05-25T05:31:55.711Z,69.79
2023-05-25T05:34:22.356Z,68.00
2023-05-25T05:36:57.270Z,66.61
2023-05-25T05:39:24.978Z,65.71
2023-05-25T05:41:51.722Z,64.63
2023-05-25T05:44:21.427Z,64.08
2023-05-25T05:46:48.064Z,65.18
2023-05-25T05:49:14.894Z,65.89
2023-05-25T05:51:41.565Z,67.03
2023-05-25T05:54:08.086Z,68.71
2023-05-25T05:56:34.577Z,69.34
2023-05-25T05:59:01.159Z,70.34
2023-05-25T06:01:27.680Z,71.46
2023-05-25T06:03:54.888Z,72.20
2023-05-25T06:06:21.827Z,72.50
2023-05-25T06:08:48.349Z,73.19
2023-05-25T06:11:14.853Z,73.18
2023-05-25T06:13:41.682Z,73.59
2023-05-25T06:16:08.329Z,73.88
2023-05-25T06:18:34.968Z,73.60
2023-05-25T06:21:02.297Z,73.07
2023-05-25T06:23:28.779Z,72.52
2023-05-25T06:25:55.456Z,72.50
2023-05-25T06:28:23.245Z,72.87
2023-05-25T06:30:49.902Z,72.45
2023-05-25T06:33:16.814Z,72.42
2023-05-25T06:35:44.052Z,72.08
2023-05-25T06:38:12.191Z,71.93
2023-05-25T06:40:39.082Z,72.01
2023-05-25T06:43:05.886Z,72.32
2023-05-25T06:45:32.617Z,71.55
2023-05-25T06:47:59.171Z,70.66
2023-05-25T06:50:25.923Z,70.16
2023-05-25T06:52:52.761Z,69.50
2023-05-25T06:55:26.730Z,69.32
2023-05-25T06:58:00.559Z,68.67
2023-05-25T07:00:29.562Z,67.88
2023-05-25T07:02:56.253Z,67.35
2023-05-25T07:05:23.207Z,67.57
2023-05-25T07:07:49.736Z,67.50
2023-05-25T07:10:17.306Z,66.42
2023-05-25T07:12:44.331Z,66.29
2023-05-25T07:15:11.128Z,64.59
2023-05-25T07:17:38.963Z,65.38
2023-05-25T07:20:06.404Z,65.45
2023-05-25T07:22:33.338Z,65.31
2023-05-25T07:25:01.254Z,64.03
2023-05-25T07:27:27.884Z,65.03
2023-05-25T07:29:54.353Z,64.57
2023-05-25T07:32:21.276Z,63.87
2023-05-25T07:34:48.076Z,63.51
2023-05-25T07:37:14.793Z,63.70
2023-05-25T07:39:43.088Z,64.06
2023-05-25T07:42:11.014Z,62.21
2023-05-25T07:44:37.569Z,61.11
2023-05-25T07:47:04.365Z,59.46
2023-05-25T07:49:30.908Z,60.27
2023-05-25T07:51:57.611Z,61.38
2023-05-25T07:54:24.265Z,62.06
2023-05-25T07:56:51.113Z,62.14
2023-05-25T07:59:17.831Z,62.22
2023-05-25T08:01:44.429Z,62.13
2023-05-25T08:04:11.352Z,61.86
2023-05-25T08:06:38.589Z,61.30
2023-05-25T08:09:05.104Z,61.14
2023-05-25T08:11:31.899Z,60.93
2023-05-25T08:14:00.067Z,60.78
2023-05-25T08:16:27.127Z,59.99
2023-05-25T08:18:53.615Z,59.71
2023-05-25T08:21:20.225Z,60.19
2023-05-25T08:23:48.707Z,59.33
2023-05-25T08:26:34.257Z,57.78
2023-05-25T08:29:04.751Z,58.25
2023-05-25T08:31:34.248Z,56.84
2023-05-25T08:36:46.098Z,55.78
2023-05-25T08:39:13.257Z,56.21
2023-05-25T08:41:42.959Z,55.25
2023-05-25T08:44:14.412Z,54.46
2023-05-25T08:46:44.372Z,53.47
2023-05-25T08:49:13.263Z,53.67
2023-05-25T08:51:58.545Z,53.69
2023-05-25T08:54:30.187Z,53.07
2023-05-25T08:57:21.465Z,52.98
2023-05-25T08:59:53.231Z,52.37
2023-05-25T09:02:56.898Z,52.54
2023-05-25T09:05:24.409Z,50.90
2023-05-25T09:07:56.760Z,50.60
2023-05-25T09:10:26.659Z,50.04
2023-05-25T09:12:55.037Z,48.55
2023-05-25T09:15:21.795Z,49.35
2023-05-25T09:17:48.445Z,50.87
2023-05-25T09:20:16.363Z,51.22
2023-05-25T09:22:44.460Z,54.10
2023-05-25T09:25:13.689Z,53.26
2023-05-25T09:27:41.435Z,51.76
2023-05-25T09:30:11.330Z,50.48
2023-05-25T09:32:38.797Z,51.33
2023-05-25T09:35:14.817Z,51.21
2023-05-25T09:37:42.517Z,50.70
2023-05-25T09:40:11.181Z,50.38
2023-05-25T09:42:38.753Z,50.55
2023-05-25T09:45:06.323Z,49.32
2023-05-25T09:47:37.300Z,47.52
2023-05-25T09:50:04.252Z,46.93
2023-05-25T09:52:31.764Z,45.25
2023-05-25T09:55:01.042Z,45.10
2023-05-25T09:57:28.312Z,46.68
2023-05-25T09:59:54.893Z,46.41
2023-05-25T10:02:21.983Z,48.06
2023-05-25T10:04:48.784Z,47.71
2023-05-25T10:07:17.349Z,49.95
2023-05-25T10:09:46.902Z,51.54
2023-05-25T10:12:20.187Z,51.90
2023-05-25T10:14:50.044Z,52.66
2023-05-25T10:17:23.273Z,51.82
2023-05-25T10:19:57.798Z,50.39
2023-05-25T10:22:31.841Z,49.66
2023-05-25T10:25:07.766Z,50.19
2023-05-25T10:28:08.447Z,49.07
2023-05-25T10:30:37.025Z,47.98
2023-05-25T10:33:04.376Z,47.60
2023-05-25T10:35:35.588Z,48.51
2023-05-25T10:38:07.286Z,48.03
2023-05-25T10:40:34.833Z,48.19
2023-05-25T10:43:02.366Z,47.30
2023-05-25T10:45:29.573Z,47.30
2023-05-25T10:47:56.259Z,46.70
2023-05-25T10:50:26.841Z,47.47
2023-05-25T10:53:05.872Z,47.36
2023-05-25T10:55:43.105Z,47.40
2023-05-25T10:58:15.532Z,47.01
2023-05-25T11:00:44.121Z,46.61
2023-05-25T11:03:10.939Z,46.18
2023-05-25T11:05:39.836Z,46.03
2023-05-25T11:08:08.999Z,44.82
2023-05-25T11:10:51.354Z,45.57
2023-05-25T11:13:32.491Z,44.97
2023-05-25T11:16:21.962Z,44.99
2023-05-25T11:18:58.007Z,43.87
2023-05-25T11:21:27.527Z,43.34
2023-05-25T11:23:57.302Z,44.35
2023-05-25T11:26:26.683Z,45.86
2023-05-25T11:28:55.071Z,46.84
2023-05-25T11:31:29.964Z,47.75
2023-05-25T11:33:58.293Z,49.03
2023-05-25T11:36:25.848Z,48.76
2023-05-25T11:39:03.119Z,48.06
2023-05-25T11:41:33.337Z,48.28
2023-05-25T11:44:07.182Z,49.14
2023-05-25T11:47:01.923Z,47.08
2023-05-25T11:49:29.177Z,48.08
2023-05-25T11:51:57.569Z,48.49
2023-05-25T11:54:25.795Z,48.27
2023-05-25T11:56:54.102Z,46.91
2023-05-25T11:59:21.189Z,46.78
2023-05-25T12:01:58.713Z,47.02
2023-05-25T12:04:25.630Z,47.29
2023-05-25T12:06:52.358Z,46.42
2023-05-25T12:09:22.447Z,46.44
2023-05-25T12:11:50.680Z,43.95
2023-05-25T12:14:19.313Z,43.98
2023-05-25T12:16:46.365Z,43.76
2023-05-25T12:19:13.918Z,44.86
2023-05-25T12:21:41.686Z,44.68
2023-05-25T12:24:09.142Z,44.58
2023-05-25T12:26:49.926Z,44.52
2023-05-25T12:29:16.765Z,43.68
2023-05-25T12:31:43.414Z,43.85
2023-05-25T12:34:13.506Z,41.96
2023-05-25T12:36:46.334Z,42.80
2023-05-25T12:39:16.205Z,44.06
2023-05-25T12:41:54.517Z,43.55
2023-05-25T12:44:27.895Z,45.79
2023-05-25T12:46:56.731Z,45.05
2023-05-25T12:49:28.659Z,46.09
2023-05-25T12:51:59.701Z,46.04
2023-05-25T12:54:44.153Z,45.92
2023-05-25T12:57:15.256Z,45.37
2023-05-25T12:59:56.475Z,45.51
2023-05-25T13:02:23.365Z,44.46
2023-05-25T13:04:50.007Z,45.06
2023-05-25T13:07:17.690Z,43.30
2023-05-25T13:09:44.501Z,44.24
2023-05-25T13:12:11.325Z,44.88
2023-05-25T13:14:38.135Z,45.02
2023-05-25T13:17:05.045Z,44.91
2023-05-25T13:19:31.841Z,45.20
2023-05-25T13:21:59.768Z,45.11
2023-05-25T13:24:26.451Z,45.48
2023-05-25T13:26:53.857Z,43.74
2023-05-25T13:29:20.577Z,42.20
2023-05-25T13:31:48.193Z,40.98
2023-05-25T13:34:15.199Z,41.74
2023-05-25T13:36:41.932Z,44.67
2023-05-25T13:39:12.781Z,44.53
2023-05-25T13:41:40.043Z,44.93
2023-05-25T13:44:11.460Z,44.22
2023-05-25T13:46:38.358Z,44.41
2023-05-25T13:49:05.260Z,44.95
2023-05-25T13:51:35.752Z,43.99
2023-05-25T13:54:04.966Z,45.40
2023-05-25T13:56:31.652Z,44.48
2023-05-25T13:58:58.608Z,45.04
2023-05-25T14:01:27.931Z,42.27
2023-05-25T14:03:56.425Z,39.22
2023-05-25T14:06:23.329Z,38.66
2023-05-25T14:08:52.871Z,39.72
2023-05-25T14:11:27.393Z,39.31
2023-05-25T14:13:56.153Z,41.64
2023-05-25T14:16:23.087Z,42.10
2023-05-25T14:18:52.975Z,43.21
2023-05-25T14:21:20.735Z,42.15
2023-05-25T14:23:48.070Z,39.74
2023-05-25T14:26:15.330Z,39.77
2023-05-25T14:28:43.025Z,39.20
2023-05-25T14:31:09.854Z,38.35
2023-05-25T14:33:40.156Z,37.88
2023-05-25T14:36:09.356Z,37.68
2023-05-25T14:38:36.856Z,34.94
2023-05-25T14:41:06.860Z,36.15
2023-05-25T14:43:34.989Z,36.64
2023-05-25T14:46:02.633Z,36.10
2023-05-25T14:48:29.849Z,36.31
2023-05-25T14:51:01.032Z,35.02
2023-05-25T14:53:31.133Z,33.98
2023-05-25T14:55:59.133Z,32.85
2023-05-25T14:58:26.733Z,31.76
2023-05-25T15:00:54.385Z,32.21
2023-05-25T15:03:21.553Z,32.99
2023-05-25T15:05:48.994Z,33.61
2023-05-25T15:08:15.486Z,32.68
2023-05-25T15:10:43.212Z,35.09
2023-05-25T15:13:10.372Z,33.77
2023-05-25T15:15:38.505Z,33.74
2023-05-25T15:18:06.760Z,33.30
2023-05-25T15:20:33.694Z,32.03
2023-05-25T15:23:02.952Z,31.40
2023-05-25T15:25:35.109Z,29.40
2023-05-25T15:28:02.436Z,31.44
2023-05-25T15:30:28.910Z,32.37
2023-05-25T15:32:55.424Z,31.34
2023-05-25T15:35:22.014Z,31.18
2023-05-25T15:37:48.780Z,31.38
2023-05-25T15:40:15.422Z,31.32
2023-05-25T15:42:42.005Z,31.47
2023-05-25T15:45:12.789Z,31.88
2023-05-25T15:47:39.381Z,32.90
2023-05-25T15:50:06.749Z,34.98
2023-05-25T15:52:33.330Z,36.75
2023-05-25T15:54:59.863Z,38.14
2023-05-25T15:57:26.428Z,39.28
2023-05-25T15:59:52.897Z,40.96
2023-05-25T16:02:19.496Z,41.10
2023-05-25T16:04:46.082Z,42.01
2023-05-25T16:07:14.168Z,43.57
2023-05-25T16:09:41.011Z,44.20
2023-05-25T16:12:07.607Z,44.07
2023-05-25T16:14:37.090Z,45.64
2023-05-25T16:17:03.683Z,46.10
2023-05-25T16:19:30.283Z,46.74
2023-05-25T16:21:56.888Z,46.46
2023-05-25T16:24:25.570Z,46.19
2023-05-25T16:26:53.583Z,46.57
2023-05-25T16:29:20.141Z,46.70
2023-05-25T16:31:46.680Z,47.32
2023-05-25T16:34:13.377Z,47.94
2023-05-25T16:36:40.044Z,47.60
2023-05-25T16:39:07.975Z,48.23
2023-05-25T16:41:34.725Z,48.21
2023-05-25T16:44:01.594Z,48.27
2023-05-25T16:46:28.257Z,48.49
2023-05-25T16:48:54.974Z,48.18
2023-05-25T16:51:24.059Z,48.44
2023-05-25T16:53:52.499Z,49.41
2023-05-25T16:56:21.512Z,49.18
2023-05-25T16:58:48.116Z,49.04
2023-05-25T17:01:14.753Z,49.81
2023-05-25T17:03:41.486Z,50.24
2023-05-25T17:06:08.681Z,50.38
2023-05-25T17:08:37.690Z,50.98
2023-05-25T17:11:04.321Z,50.12
2023-05-25T17:13:30.956Z,50.52
2023-05-25T17:15:57.753Z,51.02
2023-05-25T17:18:27.001Z,50.58
2023-05-25T17:20:53.775Z,51.59
2023-05-25T17:23:20.870Z,51.19
2023-05-25T17:25:47.662Z,51.82
2023-05-25T17:28:14.350Z,52.64
2023-05-25T17:30:41.015Z,51.99
2023-05-25T17:33:07.628Z,51.72
2023-05-25T17:35:34.211Z,52.75
2023-05-25T17:38:00.873Z,52.53
2023-05-25T17:40:27.499Z,52.52
2023-05-25T17:42:54.335Z,53.29
2023-05-25T17:45:21.089Z,54.15
2023-05-25T17:47:50.319Z,54.15
2023-05-25T17:50:17.149Z,53.86
2023-05-25T17:52:46.928Z,54.15
2023-05-25T17:55:13.686Z,54.38
2023-05-25T17:57:40.547Z,54.93
2023-05-25T18:00:07.663Z,54.49
2023-05-25T18:02:34.450Z,55.08
2023-05-25T18:05:03.980Z,54.70
2023-05-25T18:07:30.621Z,54.65
2023-05-25T18:09:57.314Z,55.15
2023-05-25T18:12:26.027Z,55.46
2023-05-25T18:14:52.643Z,55.65
2023-05-25T18:17:19.618Z,54.79
2023-05-25T18:19:46.528Z,54.68
2023-05-25T18:22:13.258Z,54.75
2023-05-25T18:24:41.917Z,54.96
2023-05-25T18:27:08.748Z,55.32
2023-05-25T18:29:35.380Z,55.54
2023-05-25T18:32:03.984Z,55.13
2023-05-25T18:34:30.646Z,55.75
2023-05-25T18:36:58.352Z,55.42
2023-05-25T18:39:25.153Z,55.56
2023-05-25T18:41:55.126Z,55.38
2023-05-25T18:44:24.367Z,56.01
2023-05-25T18:46:52.739Z,56.79
2023-05-25T18:49:19.413Z,56.41
2023-05-25T18:51:46.344Z,56.70
2023-05-25T18:54:13.117Z,56.69
2023-05-25T18:56:39.875Z,56.89
2023-05-25T18:59:06.518Z,57.38
2023-05-25T19:01:33.482Z,57.50
2023-05-25T19:04:02.474Z,57.42
2023-05-25T19:06:29.348Z,57.93
2023-05-25T19:08:56.168Z,58.13
2023-05-25T19:11:25.151Z,58.23
2023-05-25T19:13:51.965Z,58.48
2023-05-25T19:16:18.971Z,59.21
2023-05-25T19:18:45.909Z,59.23
2023-05-25T19:21:12.763Z,59.42
2023-05-25T19:23:39.850Z,59.57
2023-05-25T19:26:06.578Z,59.48
2023-05-25T19:28:34.136Z,60.29
2023-05-25T19:31:01.023Z,60.39
2023-05-25T19:33:27.813Z,60.39
2023-05-25T19:35:55.042Z,60.69
2023-05-25T19:38:22.107Z,61.04
2023-05-25T19:40:50.099Z,60.93
2023-05-25T19:43:16.785Z,61.12
2023-05-25T19:45:44.661Z,61.25
2023-05-25T19:48:11.655Z,62.11
2023-05-25T19:50:38.387Z,61.67
2023-05-25T19:53:05.153Z,61.64
2023-05-25T19:55:35.166Z,61.65
2023-05-25T19:58:01.725Z,62.22
2023-05-25T20:00:28.516Z,62.62
2023-05-25T20:02:55.585Z,62.53
2023-05-25T20:05:22.752Z,62.33
2023-05-25T20:07:51.037Z,62.64
2023-05-25T20:10:17.806Z,62.92
2023-05-25T20:12:44.630Z,62.44
2023-05-25T20:15:13.782Z,62.59
2023-05-25T20:17:40.545Z,63.33
2023-05-25T20:20:07.548Z,63.77
2023-05-25T20:22:37.454Z,63.24
2023-05-25T20:25:04.209Z,63.63
2023-05-25T20:27:32.158Z,63.78
2023-05-25T20:29:58.937Z,63.63
2023-05-25T20:32:25.720Z,64.40
2023-05-25T20:34:52.546Z,64.04
2023-05-25T20:37:19.272Z,63.86
2023-05-25T20:39:45.908Z,63.96
2023-05-25T20:42:14.624Z,64.16
2023-05-25T20:44:41.592Z,64.42
2023-05-25T20:47:08.358Z,64.87
2023-05-25T20:49:35.068Z,64.82
2023-05-25T20:52:01.732Z,65.38
2023-05-25T20:54:28.554Z,65.61
2023-05-25T20:56:55.226Z,65.32
2023-05-25T20:59:22.209Z,65.33
2023-05-25T21:01:49.205Z,65.64
2023-05-25T21:04:16.334Z,66.40
2023-05-25T21:06:43.132Z,66.05
2023-05-25T21:09:09.817Z,66.36
2023-05-25T21:11:36.680Z,66.02
2023-05-25T21:14:03.530Z,66.32
2023-05-25T21:16:30.309Z,66.77
2023-05-25T21:18:57.096Z,67.12
2023-05-25T21:21:23.799Z,67.01
2023-05-25T21:23:50.458Z,66.76
2023-05-25T21:26:17.120Z,66.91
2023-05-25T21:28:43.819Z,67.18
2023-05-25T21:31:11.131Z,67.04
2023-05-25T21:33:38.173Z,68.14
2023-05-25T21:36:05.222Z,67.58
2023-05-25T21:38:32.170Z,68.40
2023-05-25T21:41:02.960Z,68.43
2023-05-25T21:43:32.494Z,68.76
2023-05-25T21:45:59.145Z,68.80
2023-05-25T21:48:26.344Z,68.56
2023-05-25T21:50:53.672Z,69.08
2023-05-25T21:53:21.435Z,69.38
2023-05-25T21:55:48.362Z,69.80
2023-05-25T21:58:17.704Z,69.56
2023-05-25T22:00:45.044Z,69.50
2023-05-25T22:03:12.096Z,70.28
2023-05-25T22:05:38.982Z,70.41
2023-05-25T22:08:06.129Z,69.93
2023-05-25T22:10:32.875Z,70.98
2023-05-25T22:12:59.651Z,70.52
2023-05-25T22:15:26.625Z,70.78
2023-05-25T22:17:53.555Z,70.97
2023-05-25T22:20:20.348Z,71.74
2023-05-25T22:22:47.203Z,71.47
2023-05-25T22:25:13.948Z,71.95
2023-05-25T22:27:40.788Z,71.79
2023-05-25T22:30:08.311Z,72.33
2023-05-25T22:32:35.393Z,71.88
2023-05-25T22:35:02.763Z,72.29
2023-05-25T22:37:29.525Z,72.40
2023-05-25T22:39:57.611Z,73.01
2023-05-25T22:42:24.462Z,72.69
2023-05-25T22:44:51.440Z,72.59
2023-05-25T22:47:18.254Z,73.25
2023-05-25T22:49:45.502Z,73.03
2023-05-25T22:52:12.387Z,72.96
2023-05-25T22:54:39.249Z,73.37
2023-05-25T22:57:06.907Z,73.48
2023-05-25T22:59:34.063Z,73.64
2023-05-25T23:02:01.149Z,73.38
2023-05-25T23:04:30.534Z,74.10
2023-05-25T23:06:57.279Z,74.43
2023-05-25T23:09:24.097Z,73.88
2023-05-25T23:11:51.006Z,74.06
2023-05-25T23:14:17.810Z,74.55
2023-05-25T23:16:45.722Z,74.25
2023-05-25T23:19:12.689Z,75.31
2023-05-25T23:21:40.713Z,74.99
2023-05-25T23:24:08.858Z,75.06
2023-05-25T23:26:35.598Z,74.95
2023-05-25T23:29:02.677Z,75.03
2023-05-25T23:31:29.567Z,75.58
2023-05-25T23:33:56.500Z,75.78
2023-05-25T23:36:26.325Z,75.57
2023-05-25T23:38:53.345Z,75.88
2023-05-25T23:41:20.410Z,75.97
2023-05-25T23:43:47.713Z,75.23
2023-05-25T23:46:16.406Z,75.51
2023-05-25T23:48:44.269Z,76.39
2023-05-25T23:51:11.378Z,76.51
2023-05-25T23:53:39.218Z,76.33
2023-05-25T23:56:06.183Z,76.42
2023-05-25T23:58:32.935Z,76.54
